Time;durP1;ratioP1;P1;durP2;ratioP2;P2;SDS_P1;SDS_P2;PMS_P1;PMS_P2;Temp;Humidity;BMP_temperature;BMP_pressure;BME280_temperature;BME280_humidity;BME280_pressure;Samples;Min_cycle;Max_cycle;Signal;HPM_P1;HPM_P2
2022/08/17 00:04:42;;;;;;;20.25;14.10;;;;;;;23.77;73.95;100187.57;5289920;55;1143230;-66
2022/08/17 00:09:48;;;;;;;17.35;14.10;;;;;;;23.67;73.45;100187.20;5232312;56;1143227;-65
2022/08/17 00:14:54;;;;;;;17.82;14.28;;;;;;;23.76;74.36;100190.48;5316493;55;1143194;-65
2022/08/17 00:20:00;;;;;;;17.27;14.13;;;;;;;23.81;74.03;100186.63;5322517;55;1143188;-62
2022/08/17 00:25:12;;;;;;;20.10;13.78;;;;;;;23.83;73.97;100179.16;5321986;55;1143456;-65
2022/08/17 00:30:18;;;;;;;18.07;13.23;;;;;;;23.82;73.88;100186.42;5322565;55;1143098;-62
2022/08/17 00:35:26;;;;;;;17.65;12.37;;;;;;;23.85;73.62;100179.73;5289620;55;1143109;-63
2022/08/17 00:40:32;;;;;;;22.05;12.68;;;;;;;23.91;73.52;100187.00;5234880;56;1143223;-62
2022/08/17 00:45:38;;;;;;;14.28;11.93;;;;;;;23.74;72.52;100187.99;5232825;56;1141124;-65
2022/08/17 00:50:51;;;;;;;24.10;13.75;;;;;;;23.44;72.53;100178.70;5190187;56;1141090;-62
2022/08/17 00:56:01;;;;;;;17.55;14.10;;;;;;;23.05;73.26;100183.12;5156749;56;1141092;-65
2022/08/17 01:01:08;;;;;;;19.57;13.98;;;;;;;23.02;74.64;100182.70;5160300;56;1141111;-63
2022/08/17 01:06:14;;;;;;;15.36;12.06;;;;;;;22.97;74.78;100181.12;5156788;56;1141336;-65
2022/08/17 01:11:20;;;;;;;19.90;14.45;;;;;;;22.65;75.31;100174.64;5176544;56;1141090;-65
2022/08/17 01:16:29;;;;;;;17.52;14.85;;;;;;;22.50;76.32;100182.09;5242802;56;1141214;-63
2022/08/17 01:21:59;;;;;;;20.55;14.07;;;;;;;22.64;76.90;100178.38;5243458;55;1141531;-64
2022/08/17 01:27:06;;;;;;;17.42;14.03;;;;;;;22.75;76.90;100169.19;5246706;55;1141218;-61
2022/08/17 01:32:13;;;;;;;17.40;13.75;;;;;;;22.89;77.03;100174.09;5243210;55;1141056;-63
2022/08/17 01:37:23;;;;;;;22.45;15.78;;;;;;;23.00;76.55;100172.11;5235731;55;1139063;-63
2022/08/17 01:42:48;;;;;;;19.02;13.65;;;;;;;23.03;76.33;100179.80;5156359;56;1143153;-66
2022/08/17 01:47:55;;;;;;;17.42;12.65;;;;;;;22.94;75.97;100169.41;5153442;56;1143096;-62
2022/08/17 01:53:10;;;;;;;18.02;12.07;;;;;;;22.77;75.60;100169.81;5123785;57;1143200;-62
2022/08/17 01:58:16;;;;;;;22.82;13.72;;;;;;;22.81;76.40;100174.28;5168936;56;1143330;-61
2022/08/17 02:03:24;;;;;;;16.60;13.78;;;;;;;22.74;76.02;100174.27;5137347;57;1143153;-64
2022/08/17 02:08:34;;;;;;;19.67;13.98;;;;;;;22.67;75.97;100176.11;5127511;57;1143121;-61
2022/08/17 02:13:38;;;;;;;19.87;14.98;;;;;;;22.67;76.18;100164.49;5180391;56;1143161;-63
2022/08/17 02:18:45;;;;;;;16.80;13.55;;;;;;;22.58;75.99;100176.52;5172191;56;1143085;-63
2022/08/17 02:23:51;;;;;;;29.98;14.10;;;;;;;22.45;75.80;100179.52;5121870;57;1143205;-63
2022/08/17 02:28:57;;;;;;;18.42;14.10;;;;;;;22.40;76.03;100172.55;5107322;57;1143171;-66
2022/08/17 02:34:03;;;;;;;21.33;14.23;;;;;;;22.28;76.76;100173.35;5083817;57;1143326;-64
2022/08/17 02:39:11;;;;;;;17.80;13.15;;;;;;;22.22;76.91;100172.80;5160240;56;1143217;-63
2022/08/17 02:44:17;;;;;;;20.72;12.28;;;;;;;22.13;77.13;100173.52;5207025;56;1143481;-66
2022/08/17 02:49:23;;;;;;;28.02;13.88;;;;;;;22.03;76.99;100171.70;5206954;56;1143149;-61
2022/08/17 02:54:28;;;;;;;34.10;14.38;;;;;;;21.91;77.61;100170.59;5183577;56;1143236;-65
2022/08/17 02:59:34;;;;;;;29.35;14.68;;;;;;;22.03;78.60;100174.39;5233547;56;1143328;-64
2022/08/17 03:04:40;;;;;;;28.83;15.23;;;;;;;22.08;78.05;100171.94;5241563;56;1143066;-61
2022/08/17 03:09:46;;;;;;;27.85;15.43;;;;;;;22.03;77.68;100166.31;5241647;56;1143195;-61
2022/08/17 03:14:51;;;;;;;20.08;14.20;;;;;;;21.94;78.07;100181.80;5241501;56;1143156;-63
2022/08/17 03:19:57;;;;;;;21.95;13.53;;;;;;;21.94;77.99;100185.01;5239648;56;1143511;-64
2022/08/17 03:25:03;;;;;;;22.48;15.68;;;;;;;21.94;77.98;100189.87;5055104;58;1143179;-62
2022/08/17 03:30:12;;;;;;;26.15;17.12;;;;;;;21.90;77.86;100191.81;5235982;56;1143281;-61
2022/08/17 03:35:21;;;;;;;29.65;16.40;;;;;;;21.78;77.93;100192.08;5153410;56;1143482;-65
2022/08/17 03:40:28;;;;;;;33.70;15.08;;;;;;;21.66;78.15;100192.65;5204934;56;1143263;-63
2022/08/17 04:01:49;;;;;;;28.42;18.05;;;;;;;21.53;79.70;100218.66;5276387;55;1141056;-64
2022/08/17 04:06:55;;;;;;;34.73;17.70;;;;;;;21.54;79.65;100215.73;5269278;55;1141112;-62
2022/08/17 04:12:01;;;;;;;50.43;18.70;;;;;;;21.53;80.04;100218.14;5240607;56;1141027;-61
2022/08/17 04:17:06;;;;;;;39.18;17.12;;;;;;;21.61;79.94;100212.59;5242241;56;1141084;-62
2022/08/17 04:22:12;;;;;;;57.98;19.65;;;;;;;21.63;79.76;100219.95;5217898;56;1141040;-64
2022/08/17 04:27:18;;;;;;;29.72;19.12;;;;;;;21.56;80.06;100222.27;5219168;56;1141084;-62
2022/08/17 04:32:24;;;;;;;28.70;18.50;;;;;;;21.54;80.54;100226.50;5163498;56;1141244;-65
2022/08/17 04:37:31;;;;;;;20.52;15.75;;;;;;;21.44;80.60;100229.23;5155528;56;1141121;-67
2022/08/17 04:42:37;;;;;;;45.00;16.20;;;;;;;21.38;80.26;100234.39;5155335;57;1141064;-64
2022/08/17 04:47:42;;;;;;;21.07;16.55;;;;;;;21.36;81.11;100241.83;5164608;56;1141142;-64
2022/08/17 04:52:48;;;;;;;26.30;18.67;;;;;;;21.40;81.77;100247.11;5239931;55;1141064;-65
2022/08/17 04:57:54;;;;;;;25.20;17.12;;;;;;;21.50;82.31;100255.37;5202211;56;1141081;-67
2022/08/17 05:03:00;;;;;;;80.47;22.07;;;;;;;21.56;82.18;100250.53;5209777;55;1139041;-63
2022/08/17 05:08:07;;;;;;;23.35;17.73;;;;;;;21.60;83.14;100259.88;5233627;56;21147;-62
2022/08/17 05:13:17;;;;;;;23.73;19.23;;;;;;;21.66;83.65;100248.34;5187873;56;1138961;-66
2022/08/17 05:18:23;;;;;;;21.03;17.53;;;;;;;21.66;83.95;100246.48;5200779;56;1143125;-64
2022/08/17 05:23:29;;;;;;;19.07;15.93;;;;;;;21.74;84.21;100246.82;5219010;56;1143089;-65
2022/08/17 05:28:35;;;;;;;26.10;18.65;;;;;;;21.87;84.60;100243.37;5207031;56;1143189;-66
2022/08/17 05:33:43;;;;;;;26.65;18.17;;;;;;;22.01;85.30;100242.44;5235096;56;1143145;-63
2022/08/17 05:38:49;;;;;;;23.47;18.73;;;;;;;22.26;85.58;100244.95;5191914;56;1143135;-63
2022/08/17 05:43:55;;;;;;;20.88;18.50;;;;;;;22.49;85.81;100251.84;5239540;55;1143264;-63
2022/08/17 05:49:09;;;;;;;24.05;15.05;;;;;;;22.66;85.53;100249.09;5251486;55;1143112;-65
2022/08/17 05:55:00;;;;;;;29.48;18.42;;;;;;;22.88;85.11;100258.73;5270126;55;1143402;-63
2022/08/17 06:00:21;;;;;;;24.32;18.85;;;;;;;23.06;84.79;100262.18;5191651;56;1143364;-62
2022/08/17 06:06:08;;;;;;;22.80;17.75;;;;;;;23.30;84.43;100256.67;5129907;56;1143195;-64
2022/08/17 06:11:39;;;;;;;20.95;14.68;;;;;;;23.53;83.77;100261.69;5133202;56;1143177;-61
2022/08/17 06:16:49;;;;;;;17.90;14.45;;;;;;;23.81;82.77;100256.33;5179555;56;1141378;-64
2022/08/17 06:21:57;;;;;;;23.22;14.10;;;;;;;24.07;82.51;100261.34;5211358;56;1141545;-65
2022/08/17 06:27:19;;;;;;;24.67;13.55;;;;;;;24.32;82.08;100256.06;5153412;56;1141334;-66
2022/08/17 06:32:26;;;;;;;18.48;12.25;;;;;;;24.64;81.81;100265.89;5121464;56;1141555;-67
2022/08/17 06:38:15;;;;;;;83.97;13.83;;;;;;;24.94;79.55;100274.78;5122757;57;1141347;-65
2022/08/17 06:43:39;;;;;;;23.50;12.55;;;;;;;25.19;79.05;100281.91;5196780;56;1138867;-67
2022/08/17 06:49:06;;;;;;;26.23;11.27;;;;;;;25.41;76.79;100277.44;5203941;56;1143273;-62
2022/08/17 06:54:26;;;;;;;20.45;12.65;;;;;;;25.57;76.50;100269.59;5144243;56;1143471;-65
2022/08/17 07:00:04;;;;;;;14.90;11.05;;;;;;;25.72;75.60;100269.79;5167400;56;1143157;-64
2022/08/17 07:05:13;;;;;;;22.80;11.68;;;;;;;25.95;73.57;100267.79;5228253;56;1143086;-65
2022/08/17 07:10:21;;;;;;;33.55;11.45;;;;;;;26.07;73.46;100264.09;5231332;56;1143133;-66
2022/08/17 07:15:32;;;;;;;14.03;11.00;;;;;;;26.27;73.20;100268.77;5198564;56;1143096;-63
2022/08/17 07:20:42;;;;;;;17.15;9.95;;;;;;;26.45;72.48;100263.02;5176672;56;1143524;-63
2022/08/17 07:25:49;;;;;;;13.30;9.65;;;;;;;26.71;71.82;100270.82;5188476;56;1141335;-64
2022/08/17 07:30:56;;;;;;;20.30;10.95;;;;;;;26.94;71.56;100266.01;5209566;56;1141312;-68
2022/08/17 07:36:01;;;;;;;12.80;9.50;;;;;;;27.17;69.10;100270.15;5213120;55;1143475;-64
2022/08/17 07:41:11;;;;;;;13.10;10.85;;;;;;;27.38;67.78;100273.34;5178276;56;1141227;-61
2022/08/17 07:51:55;;;;;;;15.48;9.30;;;;;;;27.87;68.30;100272.91;5074580;57;1143104;-63
2022/08/17 07:57:14;;;;;;;10.82;9.73;;;;;;;28.16;67.49;100272.44;5164943;56;1141185;-65
2022/08/17 08:02:39;;;;;;;25.82;10.38;;;;;;;28.40;65.31;100271.89;5134132;56;1138940;-65
2022/08/17 08:07:58;;;;;;;16.97;9.70;;;;;;;28.64;64.79;100278.05;5135384;56;1141051;-65
2022/08/17 08:13:13;;;;;;;14.85;9.70;;;;;;;28.83;63.77;100278.17;5173855;56;1139122;-67
2022/08/17 08:18:26;;;;;;;10.70;8.05;;;;;;;28.95;63.59;100287.10;5207584;56;1139070;-65
2022/08/17 08:23:51;;;;;;;14.75;9.28;;;;;;;29.12;63.02;100291.75;5214488;56;1139050;-66
2022/08/17 08:29:21;;;;;;;14.25;9.15;;;;;;;29.29;61.20;100289.86;5136270;56;1141024;-64
2022/08/17 08:34:51;;;;;;;11.53;9.50;;;;;;;29.47;58.84;100286.10;5244209;56;1141086;-65
2022/08/17 08:40:21;;;;;;;9.95;8.95;;;;;;;29.66;57.22;100282.84;5207880;56;1141049;-66
2022/08/17 08:45:59;;;;;;;9.20;8.20;;;;;;;29.76;56.47;100287.63;5179464;56;1138863;-62
2022/08/17 08:51:21;;;;;;;76.05;11.43;;;;;;;29.95;57.25;100284.88;5223038;56;1138954;-64
2022/08/17 08:56:41;;;;;;;14.83;7.33;;;;;;;30.17;55.88;100288.21;5236806;55;1143139;-65
2022/08/17 09:02:25;;;;;;;9.98;6.78;;;;;;;30.20;54.55;100291.27;5247558;55;1140975;-65
2022/08/17 09:07:38;;;;;;;9.33;5.83;;;;;;;30.34;54.40;100286.25;5281783;55;1136873;-65
2022/08/17 09:13:15;;;;;;;88.97;11.57;;;;;;;30.39;53.27;100277.59;5286682;55;1136955;-65
2022/08/17 09:18:25;;;;;;;6.95;6.00;;;;;;;30.54;51.99;100272.02;5317513;55;1141061;-65
2022/08/17 09:23:50;;;;;;;9.15;7.00;;;;;;;30.85;52.42;100277.30;5246242;55;1137043;-65
2022/08/17 09:29:00;;;;;;;12.58;7.92;;;;;;;31.03;50.50;100270.06;5258667;55;1135066;-67
2022/08/17 09:34:13;;;;;;;10.28;7.05;;;;;;;31.24;51.14;100262.37;5258993;55;1141084;-65
2022/08/17 09:39:32;;;;;;;10.80;6.95;;;;;;;31.36;49.79;100269.02;5194155;56;1141102;-64
2022/08/17 09:45:14;;;;;;;18.37;6.30;;;;;;;31.60;50.35;100274.94;5121487;57;1141074;-65
2022/08/17 09:50:40;;;;;;;22.67;6.97;;;;;;;31.83;49.72;100268.26;5232508;56;1141002;-66
2022/08/17 09:55:54;;;;;;;7.57;6.87;;;;;;;31.91;46.58;100263.13;5212274;56;1141294;-64
2022/08/17 10:01:07;;;;;;;9.58;5.90;;;;;;;31.98;46.44;100262.87;5173176;56;1138988;-67
2022/08/17 10:06:29;;;;;;;13.53;5.42;;;;;;;32.18;47.25;100254.77;5250400;56;1138884;-62
2022/08/17 10:12:34;;;;;;;13.93;6.57;;;;;;;32.42;44.54;100254.59;5244695;55;1141146;-62
2022/08/17 10:17:20;;;;;;;10.75;5.87;;;;;;;32.15;43.93;100248.45;5240205;55;1141174;-65
2022/08/17 10:28:03;;;;;;;17.50;6.05;;;;;;;32.36;43.02;100253.49;5296272;55;1137128;-64
2022/08/17 10:33:16;;;;;;;8.25;5.97;;;;;;;32.12;42.84;100249.80;5257259;55;1139011;-67
2022/08/17 10:38:38;;;;;;;6.03;5.22;;;;;;;32.14;43.01;100253.64;5280204;55;1136875;-64
2022/08/17 10:43:57;;;;;;;5.87;5.28;;;;;;;32.37;42.28;100245.02;5315584;55;1136924;-64
2022/08/17 10:49:22;;;;;;;7.53;5.17;;;;;;;32.53;41.36;100244.51;5122263;57;1136902;-64
2022/08/17 10:54:38;;;;;;;6.70;5.53;;;;;;;32.83;41.85;100258.83;5276368;55;1138944;-64
2022/08/17 10:59:49;;;;;;;5.85;5.22;;;;;;;33.06;40.58;100258.29;5253106;55;1139001;-68
2022/08/17 11:05:14;;;;;;;7.17;5.08;;;;;;;32.92;39.81;100260.47;5207397;56;1138987;-64
2022/08/17 11:10:43;;;;;;;6.25;4.72;;;;;;;32.60;39.60;100255.19;5234891;56;1139253;-65
2022/08/17 11:16:02;;;;;;;6.22;5.10;;;;;;;32.26;40.52;100248.78;5213654;55;1138972;-65
2022/08/17 11:21:36;;;;;;;5.67;4.60;;;;;;;32.38;40.60;100252.14;5209161;56;1139035;-62
2022/08/17 11:26:47;;;;;;;4.53;4.12;;;;;;;32.61;39.53;100256.28;5229977;56;1139014;-62
2022/08/17 11:32:12;;;;;;;7.87;5.05;;;;;;;32.80;39.05;100252.52;5208444;56;1139002;-65
2022/08/17 11:37:32;;;;;;;4.12;3.92;;;;;;;32.95;38.22;100251.72;5189436;56;1138936;-63
2022/08/17 11:43:07;;;;;;;4.67;4.20;;;;;;;33.19;39.00;100251.43;5206778;56;1139126;-64
2022/08/17 11:54:11;;;;;;;4.60;4.20;;;;;;;33.75;36.51;100241.25;5210527;56;1137114;-66
2022/08/17 11:59:40;;;;;;;10.05;4.53;;;;;;;33.76;36.39;100235.21;5121464;56;1137304;-65
2022/08/17 12:05:24;;;;;;;5.25;4.33;;;;;;;33.82;37.06;100231.36;5156090;56;1141290;-64
2022/08/17 12:10:33;;;;;;;8.15;4.47;;;;;;;34.05;36.26;100227.17;5228918;56;1138942;-66
2022/08/17 12:15:47;;;;;;;8.40;4.72;;;;;;;34.22;36.17;100234.52;5232211;56;1139056;-64
2022/08/17 12:21:12;;;;;;;5.97;5.08;;;;;;;34.51;36.74;100231.91;5246536;55;1139324;-63
2022/08/17 12:26:22;;;;;;;10.75;5.22;;;;;;;34.56;35.36;100224.98;5311479;55;1139059;-63
2022/08/17 12:31:35;;;;;;;6.90;4.70;;;;;;;34.79;35.63;100220.75;5257817;55;1141002;-64
2022/08/17 12:36:41;;;;;;;8.85;4.92;;;;;;;35.03;35.94;100225.77;5251057;55;1138920;-63
2022/08/17 12:41:51;;;;;;;8.25;5.03;;;;;;;35.15;35.29;100222.63;5282995;55;1138912;-63
2022/08/17 12:47:18;;;;;;;6.85;5.20;;;;;;;35.22;35.17;100222.58;5285865;55;1138967;-67
2022/08/17 12:52:28;;;;;;;4.37;4.08;;;;;;;34.95;34.42;100224.20;5290575;55;1139191;-65
2022/08/17 12:57:46;;;;;;;4.37;3.83;;;;;;;34.98;34.47;100212.64;5312747;55;1139075;-67
2022/08/17 13:03:09;;;;;;;6.50;4.62;;;;;;;34.85;33.56;100217.66;5215005;56;1138952;-65
2022/08/17 13:08:31;;;;;;;9.13;5.10;;;;;;;34.75;33.92;100216.34;5211747;56;1136889;-64
2022/08/17 13:13:41;;;;;;;4.72;4.22;;;;;;;34.67;34.01;100207.91;5208268;56;1137113;-64
2022/08/17 13:19:06;;;;;;;5.97;4.85;;;;;;;34.77;33.18;100212.79;5239158;56;1136841;-61
2022/08/17 13:24:19;;;;;;;7.60;5.00;;;;;;;34.70;32.72;100205.93;5223095;56;1137345;-65
2022/08/17 13:29:32;;;;;;;12.35;4.53;;;;;;;34.71;33.16;100200.16;5228875;55;1136868;-65
2022/08/17 13:34:50;;;;;;;7.47;4.40;;;;;;;34.89;33.92;100202.80;5224638;56;1138993;-67
2022/08/17 13:40:10;;;;;;;8.56;4.60;;;;;;;35.05;34.13;100202.11;5218782;56;1138944;-67
2022/08/17 13:45:38;;;;;;;5.95;4.83;;;;;;;35.12;33.64;100206.73;5254826;56;1138881;-64
2022/08/17 13:51:01;;;;;;;5.80;4.30;;;;;;;35.05;33.27;100199.36;5208275;56;1139051;-65
2022/08/17 13:56:14;;;;;;;5.12;4.72;;;;;;;34.84;33.88;100200.08;5214172;56;1139077;-61
2022/08/17 14:01:39;;;;;;;6.92;4.90;;;;;;;34.93;34.01;100202.50;5212065;56;1139028;-66
2022/08/17 14:07:11;;;;;;;8.20;4.58;;;;;;;35.09;34.46;100196.31;5216927;56;1138971;-64
2022/08/17 14:12:21;;;;;;;16.32;4.95;;;;;;;35.20;33.54;100196.47;5235685;56;1138957;-67
2022/08/17 14:17:30;;;;;;;6.67;4.30;;;;;;;35.31;33.81;100197.22;5207772;56;1141022;-62
2022/08/17 14:22:40;;;;;;;7.53;4.62;;;;;;;35.34;33.60;100201.59;5207085;56;1138953;-63
2022/08/17 14:27:49;;;;;;;9.00;5.28;;;;;;;35.34;32.17;100193.89;5185133;56;1138981;-62
2022/08/17 14:32:56;;;;;;;6.40;5.10;;;;;;;35.05;32.46;100187.00;5212935;56;1138957;-63
2022/08/17 14:38:02;;;;;;;6.70;4.92;;;;;;;35.00;33.67;100191.16;5227292;56;1138146;-65
2022/08/17 14:43:09;;;;;;;16.95;6.97;;;;;;;34.93;33.24;100195.63;5210239;55;1139000;-63
2022/08/17 14:48:14;;;;;;;6.67;4.72;;;;;;;34.82;32.83;100192.70;5221048;56;1141079;-61
2022/08/17 14:53:20;;;;;;;9.88;4.33;;;;;;;34.83;33.63;100187.48;5207492;56;1138898;-66
2022/08/17 14:58:28;;;;;;;15.23;5.22;;;;;;;34.91;33.77;100200.59;5206842;56;1139046;-65
2022/08/17 15:03:33;;;;;;;17.52;5.08;;;;;;;35.05;34.11;100199.36;5245202;56;1139035;-63
2022/08/17 15:08:39;;;;;;;12.20;5.10;;;;;;;35.08;33.05;100199.61;5210380;56;1138920;-63
2022/08/17 15:13:47;;;;;;;4.80;4.37;;;;;;;35.01;32.88;100190.87;5214185;56;1139002;-63
2022/08/17 15:18:53;;;;;;;6.05;4.50;;;;;;;35.00;33.44;100191.97;5228058;56;1136888;-63
2022/08/17 15:23:59;;;;;;;13.85;5.80;;;;;;;35.04;33.49;100194.42;5206608;56;1137206;-63
2022/08/17 15:29:05;;;;;;;22.87;10.75;;;;;;;34.78;32.85;100195.20;5219943;56;1139043;-63
2022/08/17 15:34:11;;;;;;;15.68;5.03;;;;;;;34.52;33.03;100197.84;5210237;56;1141214;-64
2022/08/17 15:39:17;;;;;;;9.68;4.40;;;;;;;34.46;33.09;100195.67;5206026;56;1139022;-65
2022/08/17 15:44:22;;;;;;;12.78;4.83;;;;;;;34.41;33.76;100192.95;5215317;55;1137149;-64
2022/08/17 15:49:28;;;;;;;8.40;3.75;;;;;;;34.42;33.58;100191.84;5218665;56;1139005;-62
2022/08/17 15:54:33;;;;;;;25.92;4.65;;;;;;;34.46;33.83;100192.92;5247085;56;1136865;-66
2022/08/17 15:59:40;;;;;;;6.67;4.87;;;;;;;34.46;33.52;100192.10;5209577;56;1139033;-68
2022/08/17 16:04:45;;;;;;;16.05;5.35;;;;;;;34.49;33.18;100192.36;5215045;55;1137039;-67
2022/08/17 16:09:51;;;;;;;6.37;4.00;;;;;;;34.45;33.10;100200.08;5203589;56;1139541;-63
2022/08/17 16:14:57;;;;;;;209.57;16.45;;;;;;;34.40;33.07;100190.48;5210041;56;1136988;-63
2022/08/17 16:20:04;;;;;;;65.10;8.50;;;;;;;34.39;33.36;100192.41;5210247;56;1143139;-67
2022/08/17 16:25:16;;;;;;;15.58;4.12;;;;;;;34.32;32.77;100195.22;5244977;56;1139489;-64
2022/08/17 16:30:25;;;;;;;13.80;3.87;;;;;;;34.24;33.16;100191.92;5216152;55;1136945;-65
2022/08/17 16:35:32;;;;;;;9.45;3.92;;;;;;;34.08;32.68;100199.96;5246744;56;1141009;-65
2022/08/17 16:40:39;;;;;;;16.33;5.17;;;;;;;33.96;33.07;100205.52;5217269;56;1138923;-67
2022/08/17 16:45:45;;;;;;;23.93;6.60;;;;;;;33.76;33.07;100208.63;5222605;56;1141279;-65
2022/08/17 16:50:51;;;;;;;37.48;5.55;;;;;;;33.64;33.40;100200.38;5206324;56;1141049;-62
2022/08/17 16:55:57;;;;;;;54.95;6.03;;;;;;;33.54;33.75;100203.98;5207896;56;1141183;-63
2022/08/17 17:01:02;;;;;;;36.95;5.30;;;;;;;33.46;34.00;100208.11;5216684;56;1141025;-65
2022/08/17 17:06:27;;;;;;;26.33;5.42;;;;;;;33.37;34.08;100211.70;5281471;55;1141020;-63
2022/08/17 17:11:48;;;;;;;34.55;6.42;;;;;;;33.30;34.12;100218.86;5257059;55;1140991;-64
2022/08/17 17:17:12;;;;;;;31.53;7.63;;;;;;;33.20;34.34;100216.89;5276365;55;1141110;-67
2022/08/17 17:22:26;;;;;;;25.68;5.37;;;;;;;33.14;34.75;100215.83;5264797;55;1141001;-64
2022/08/17 17:27:57;;;;;;;18.17;4.75;;;;;;;33.09;34.98;100217.19;5273977;55;1141041;-67
2022/08/17 17:33:22;;;;;;;18.62;4.80;;;;;;;32.98;35.31;100216.92;5322171;55;1141047;-63
2022/08/17 17:38:35;;;;;;;60.35;8.58;;;;;;;32.84;35.64;100228.98;5280098;55;1141023;-65
2022/08/17 17:43:41;;;;;;;57.35;6.25;;;;;;;32.73;35.78;100221.82;5321840;55;1141055;-64
2022/08/17 17:48:47;;;;;;;58.30;6.97;;;;;;;32.59;36.14;100234.38;5312969;55;1141322;-67
2022/08/17 17:54:06;;;;;;;82.30;9.08;;;;;;;32.42;36.38;100231.86;5264869;55;1141033;-66
2022/08/17 17:59:34;;;;;;;44.65;6.55;;;;;;;32.25;36.73;100226.61;5268110;55;1138941;-63
2022/08/17 18:04:57;;;;;;;53.40;5.92;;;;;;;32.09;37.04;100231.72;5269944;55;1138908;-64
2022/08/17 18:10:25;;;;;;;34.38;5.92;;;;;;;31.91;37.58;100221.27;5258933;55;1138919;-64
2022/08/17 18:15:49;;;;;;;57.50;6.65;;;;;;;31.72;37.83;100228.56;5198874;56;1138941;-64
2022/08/17 18:20:52;;;;;;;54.42;6.80;;;;;;;31.63;38.02;100236.11;5185678;56;1140267;-64
2022/08/17 18:26:00;;;;;;;88.33;8.53;;;;;;;31.44;38.15;100254.33;5227610;56;1141308;-66
2022/08/17 18:31:10;;;;;;;95.23;9.50;;;;;;;31.37;38.33;100261.09;5245036;55;1141149;-64
2022/08/17 18:36:35;;;;;;;68.62;8.78;;;;;;;31.21;38.83;100253.86;5286497;55;1141082;-62
2022/08/17 18:41:53;;;;;;;112.40;10.88;;;;;;;31.15;38.94;100257.66;5279546;55;1141214;-65
2022/08/17 18:47:27;;;;;;;86.65;12.23;;;;;;;31.14;39.35;100258.20;5292203;55;1145208;-62
2022/08/17 18:52:34;;;;;;;62.38;9.18;;;;;;;30.93;40.25;100257.16;5313944;55;1143079;-65
2022/08/17 18:57:51;;;;;;;59.63;8.18;;;;;;;30.75;40.80;100253.42;5317748;55;1141089;-66
2022/08/17 19:03:20;;;;;;;70.80;8.85;;;;;;;30.54;41.40;100261.96;5255528;55;1141075;-66
2022/08/17 19:08:35;;;;;;;83.63;7.97;;;;;;;30.29;41.90;100251.53;5229091;56;1141043;-65
2022/08/17 19:13:44;;;;;;;147.60;10.18;;;;;;;30.20;42.34;100246.79;5214129;56;1140996;-61
2022/08/17 19:19:09;;;;;;;145.68;11.22;;;;;;;30.17;41.96;100250.84;5207168;56;1145233;-66
2022/08/17 19:24:28;;;;;;;99.70;9.68;;;;;;;30.10;42.67;100265.20;5130031;56;1145313;-67
2022/08/17 19:29:56;;;;;;;102.22;8.90;;;;;;;29.99;42.45;100262.89;5066042;57;1138999;-65
2022/08/17 19:35:04;;;;;;;86.67;10.10;;;;;;;29.95;42.53;100272.61;5065619;57;1141122;-66
2022/08/17 19:40:50;;;;;;;66.28;7.80;;;;;;;29.92;42.75;100269.05;5004055;58;1141268;-63
2022/08/17 19:46:24;;;;;;;42.48;6.65;;;;;;;29.91;43.13;100273.39;5008863;58;1137012;-66
2022/08/17 19:51:40;;;;;;;47.20;8.48;;;;;;;29.69;43.84;100271.44;5073663;57;1141124;-63
2022/08/17 19:56:54;;;;;;;27.02;7.53;;;;;;;29.60;44.04;100277.58;5090263;57;1141195;-64
2022/08/17 20:02:19;;;;;;;35.38;7.20;;;;;;;29.53;44.09;100283.72;5081646;57;1141312;-65
2022/08/17 20:07:44;;;;;;;14.07;5.75;;;;;;;29.23;44.73;100296.29;4974998;58;1141312;-65
2022/08/17 20:12:52;;;;;;;24.43;6.50;;;;;;;28.96;45.41;100298.29;4991626;58;1141086;-67
2022/08/17 20:18:02;;;;;;;30.45;6.80;;;;;;;28.89;45.63;100297.60;4985357;58;1141401;-63
2022/08/17 20:23:30;;;;;;;55.75;7.70;;;;;;;28.94;45.94;100296.88;5047318;57;1141140;-65
2022/08/17 20:28:43;;;;;;;41.95;7.20;;;;;;;28.93;45.86;100305.58;5070012;57;1141319;-65
2022/08/17 20:33:44;;;;;;;40.50;7.85;;;;;;;28.89;45.69;100305.77;5051293;57;1141371;-63
2022/08/17 20:38:57;;;;;;;34.83;7.08;;;;;;;28.87;46.06;100312.55;5064319;57;1141069;-61
2022/08/17 20:44:05;;;;;;;26.60;7.12;;;;;;;28.88;46.42;100300.56;5135542;56;1141125;-62
2022/08/17 20:49:25;;;;;;;16.77;7.75;;;;;;;28.41;47.38;100302.64;5242148;56;1141077;-61
2022/08/17 20:54:52;;;;;;;16.27;8.05;;;;;;;28.41;47.38;100302.64;5301923;55;1140990;-64
2022/08/17 21:00:15;;;;;;;13.05;7.20;;;;;;;28.30;48.00;100301.05;5309436;55;1139084;-64
2022/08/17 21:05:51;;;;;;;13.90;6.60;;;;;;;28.16;48.87;100306.43;5322767;55;1138960;-65
2022/08/17 21:10:58;;;;;;;21.55;7.12;;;;;;;28.03;49.59;100302.61;5255543;55;1138411;-65
2022/08/17 21:16:25;;;;;;;17.90;7.53;;;;;;;27.83;50.43;100302.97;5331372;55;1139044;-67
2022/08/17 21:22:02;;;;;;;27.37;7.60;;;;;;;27.72;51.17;100294.30;5289776;55;1141011;-64
2022/08/17 21:27:27;;;;;;;19.90;7.83;;;;;;;27.52;51.89;100301.41;5302014;55;1141019;-65
2022/08/17 21:32:37;;;;;;;14.40;8.58;;;;;;;27.49;52.55;100307.33;5276012;55;1141140;-65
2022/08/17 21:37:51;;;;;;;11.57;8.80;;;;;;;27.42;53.21;100313.92;5232752;55;1141173;-64
2022/08/17 21:43:07;;;;;;;17.02;8.78;;;;;;;27.38;53.66;100309.48;5265391;55;1141031;-64
2022/08/17 21:48:24;;;;;;;18.37;9.23;;;;;;;27.31;54.04;100314.21;5126956;57;1141037;-63
2022/08/17 21:53:43;;;;;;;12.43;8.70;;;;;;;27.31;54.53;100308.78;5241890;56;1141002;-65
2022/08/17 21:58:56;;;;;;;10.85;7.95;;;;;;;27.37;54.75;100301.56;5236408;56;1140992;-64
2022/08/17 22:04:22;;;;;;;12.75;8.98;;;;;;;27.38;55.06;100306.77;5257014;55;1141037;-63
2022/08/17 22:09:33;;;;;;;23.32;9.03;;;;;;;27.41;55.30;100297.33;5263105;55;1141344;-63
2022/08/17 22:14:43;;;;;;;9.88;8.25;;;;;;;27.46;55.36;100298.81;5329007;55;1141055;-68
2022/08/17 22:19:53;;;;;;;17.05;8.83;;;;;;;27.49;55.56;100299.18;5291958;55;1139001;-65
2022/08/17 22:25:06;;;;;;;12.27;9.50;;;;;;;27.31;55.76;100290.59;5293801;55;1138904;-61
2022/08/17 22:30:29;;;;;;;25.05;10.15;;;;;;;27.29;56.29;100295.96;5282446;55;1139161;-66
2022/08/17 22:35:41;;;;;;;12.88;9.13;;;;;;;27.30;56.41;100293.54;5289531;55;1141014;-62
2022/08/17 22:40:53;;;;;;;18.45;9.93;;;;;;;27.29;56.46;100298.14;5272150;55;1138939;-66
2022/08/17 22:46:00;;;;;;;16.55;9.38;;;;;;;27.30;56.68;100297.08;5241956;56;1139269;-64
2022/08/17 22:51:13;;;;;;;20.65;9.90;;;;;;;27.29;56.69;100296.78;5143294;57;1138969;-66
2022/08/17 23:02:14;;;;;;;18.35;10.13;;;;;;;27.14;57.25;100300.47;5162917;57;21207;-64
2022/08/17 23:07:21;;;;;;;20.62;10.03;;;;;;;27.09;57.52;100304.41;5233891;56;1139246;-63
2022/08/17 23:12:28;;;;;;;13.22;9.40;;;;;;;27.08;57.76;100308.70;5259514;55;1143243;-62
2022/08/17 23:17:34;;;;;;;27.70;10.28;;;;;;;27.01;57.81;100318.86;5308675;55;1141107;-64
2022/08/17 23:22:42;;;;;;;14.90;8.75;;;;;;;26.75;57.93;100316.77;5258387;55;1143098;-66
2022/08/17 23:27:47;;;;;;;13.55;10.15;;;;;;;26.49;58.59;100322.54;5233209;55;1141011;-64
2022/08/17 23:32:55;;;;;;;15.20;9.40;;;;;;;26.31;59.41;100327.97;5226329;56;1143274;-62
2022/08/17 23:38:01;;;;;;;14.53;10.23;;;;;;;26.15;59.81;100325.30;5239546;55;1141310;-65
2022/08/17 23:43:10;;;;;;;16.30;9.83;;;;;;;26.05;60.58;100335.84;5308297;55;1143707;-66
2022/08/17 23:48:16;;;;;;;22.95;10.75;;;;;;;25.88;61.16;100336.42;5308331;55;1141065;-65
2022/08/17 23:53:23;;;;;;;15.83;10.20;;;;;;;25.96;61.93;100338.55;5308497;55;1143122;-65
2022/08/17 23:58:29;;;;;;;19.60;11.25;;;;;;;25.97;61.83;100351.06;5308298;55;1143406;-64
